createdAt,value
2023-11-17T00:04:38.114Z,13.22
2023-11-17T00:09:41.551Z,12.64
2023-11-17T00:14:44.909Z,12.18
2023-11-17T00:19:48.241Z,11.80
2023-11-17T00:24:51.577Z,12.36
2023-11-17T00:29:54.714Z,14.76
2023-11-17T00:34:57.861Z,15.44
2023-11-17T00:40:01.612Z,14.09
2023-11-17T00:45:07.586Z,13.20
2023-11-17T00:50:12.674Z,12.60
2023-11-17T00:55:17.379Z,12.13
2023-11-17T01:00:20.561Z,11.73
2023-11-17T01:05:23.828Z,11.40
2023-11-17T01:10:28.205Z,12.31
2023-11-17T01:15:35.492Z,15.14
2023-11-17T01:20:42.312Z,15.53
2023-11-17T01:25:46.628Z,14.06
2023-11-17T01:30:49.963Z,13.18
2023-11-17T01:35:53.145Z,12.55
2023-11-17T01:40:58.243Z,12.00
2023-11-17T01:46:02.078Z,11.59
2023-11-17T01:51:06.700Z,12.52
2023-11-17T01:56:10.044Z,15.41
2023-11-17T02:01:15.286Z,15.67
2023-11-17T02:06:39.148Z,14.13
2023-11-17T02:11:51.505Z,13.22
2023-11-17T02:16:55.486Z,12.60
2023-11-17T02:22:04.139Z,12.12
2023-11-17T02:28:01.366Z,11.71
2023-11-17T02:33:09.659Z,12.96
2023-11-17T02:38:14.342Z,15.57
2023-11-17T02:43:17.582Z,15.36
2023-11-17T02:48:29.664Z,13.94
2023-11-17T02:53:37.029Z,13.08
2023-11-17T02:58:40.304Z,12.47
2023-11-17T03:03:45.287Z,12.02
2023-11-17T03:08:50.768Z,11.67
2023-11-17T03:13:54.063Z,12.53
2023-11-17T03:18:57.296Z,15.26
2023-11-17T03:24:00.386Z,15.73
2023-11-17T03:29:06.275Z,14.21
2023-11-17T03:34:11.015Z,13.26
2023-11-17T03:39:15.076Z,12.64
2023-11-17T03:44:18.188Z,12.15
2023-11-17T03:49:22.806Z,11.73
2023-11-17T03:54:26.165Z,12.45
2023-11-17T03:59:31.646Z,15.24
2023-11-17T04:04:35.710Z,15.60
2023-11-17T04:09:39.119Z,14.11
2023-11-17T04:14:43.657Z,13.24
2023-11-17T04:19:48.021Z,12.60
2023-11-17T04:24:51.281Z,12.11
2023-11-17T04:29:54.668Z,11.70
2023-11-17T04:34:57.929Z,12.54
2023-11-17T04:40:03.228Z,15.20
2023-11-17T04:45:10.648Z,15.77
2023-11-17T04:50:14.322Z,14.26
2023-11-17T04:55:17.842Z,13.33
2023-11-17T05:00:21.604Z,12.70
2023-11-17T05:05:25.041Z,12.19
2023-11-17T05:10:28.484Z,11.77
2023-11-17T05:15:33.578Z,12.37
2023-11-17T05:20:38.671Z,14.93
2023-11-17T05:25:41.899Z,15.49
2023-11-17T05:30:45.110Z,14.08
2023-11-17T05:35:49.176Z,13.19
2023-11-17T05:40:53.391Z,12.59
2023-11-17T05:51:10.782Z,11.73
2023-11-17T05:56:14.040Z,12.66
2023-11-17T06:01:17.843Z,15.17
2023-11-17T06:06:21.028Z,15.61
2023-11-17T06:11:26.952Z,14.17
2023-11-17T06:16:30.543Z,13.29
2023-11-17T06:21:33.866Z,12.72
2023-11-17T06:26:37.084Z,12.26
2023-11-17T06:31:44.745Z,11.86
2023-11-17T06:36:48.263Z,12.70
2023-11-17T06:41:53.082Z,15.20
2023-11-17T06:46:57.622Z,15.67
2023-11-17T06:52:03.227Z,14.28
2023-11-17T06:57:08.352Z,13.42
2023-11-17T07:02:11.611Z,12.82
2023-11-17T07:07:15.846Z,12.36
2023-11-17T07:12:19.101Z,11.97
2023-11-17T07:17:22.516Z,12.68
2023-11-17T07:22:26.344Z,15.11
2023-11-17T07:27:29.851Z,15.75
2023-11-17T07:32:33.071Z,14.35
2023-11-17T07:37:36.368Z,13.46
2023-11-17T07:42:41.077Z,12.87
2023-11-17T07:47:44.847Z,12.40
2023-11-17T07:52:48.013Z,12.95
2023-11-17T07:57:51.544Z,15.46
2023-11-17T08:02:57.545Z,15.94
2023-11-17T08:08:02.023Z,14.47
2023-11-17T08:13:05.842Z,13.57
2023-11-17T08:18:10.717Z,12.98
2023-11-17T08:23:14.504Z,12.51
2023-11-17T08:28:18.202Z,12.15
2023-11-17T08:33:21.595Z,12.98
2023-11-17T08:38:26.759Z,16.09
2023-11-17T08:43:30.250Z,16.06
2023-11-17T08:48:37.262Z,14.59
2023-11-17T08:53:40.342Z,13.77
2023-11-17T08:58:43.871Z,13.18
2023-11-17T09:03:48.517Z,12.73
2023-11-17T09:08:52.064Z,12.36
2023-11-17T09:13:55.159Z,13.41
2023-11-17T09:19:00.883Z,16.43
2023-11-17T09:24:04.507Z,15.67
2023-11-17T09:29:08.805Z,14.30
2023-11-17T09:34:12.063Z,13.52
2023-11-17T09:39:17.037Z,12.95
2023-11-17T09:44:20.716Z,12.48
2023-11-17T09:49:29.887Z,12.10
2023-11-17T09:54:34.568Z,11.78
2023-11-17T09:59:44.177Z,12.99
2023-11-17T10:04:47.405Z,16.15
2023-11-17T10:09:51.092Z,17.39
2023-11-17T10:14:55.122Z,16.42
2023-11-17T10:19:59.620Z,15.89
2023-11-17T10:25:03.626Z,15.24
2023-11-17T10:30:09.107Z,14.47
2023-11-17T10:35:18.408Z,13.80
2023-11-17T10:40:33.248Z,13.17
2023-11-17T10:45:48.559Z,12.59
2023-11-17T10:50:53.437Z,12.14
2023-11-17T10:55:59.111Z,11.86
2023-11-17T11:01:04.975Z,11.63
2023-11-17T11:06:09.619Z,12.77
2023-11-17T11:11:22.058Z,15.70
2023-11-17T11:16:26.114Z,15.32
2023-11-17T11:21:35.069Z,13.95
2023-11-17T11:26:39.527Z,13.18
2023-11-17T11:31:42.776Z,12.59
2023-11-17T11:36:49.019Z,12.14
2023-11-17T11:41:52.406Z,11.78
2023-11-17T11:46:59.108Z,11.46
2023-11-17T11:52:14.689Z,11.25
2023-11-17T11:57:30.044Z,11.08
2023-11-17T12:02:35.084Z,12.32
2023-11-17T12:07:39.332Z,15.19
2023-11-17T12:12:45.523Z,14.55
2023-11-17T12:17:54.510Z,13.41
2023-11-17T12:23:06.922Z,12.74
2023-11-17T12:28:11.059Z,12.23
2023-11-17T12:33:15.653Z,11.75
2023-11-17T12:38:18.858Z,11.32
2023-11-17T12:43:22.894Z,11.07
2023-11-17T12:48:26.109Z,10.88
2023-11-17T12:53:50.804Z,12.05
2023-11-17T12:58:55.931Z,14.97
2023-11-17T13:04:01.127Z,14.32
2023-11-17T13:09:11.208Z,13.19
2023-11-17T13:14:25.726Z,12.41
2023-11-17T13:19:30.584Z,11.95
2023-11-17T13:24:34.022Z,11.59
2023-11-17T13:29:41.730Z,11.31
2023-11-17T13:34:55.222Z,11.01
2023-11-17T13:40:00.372Z,10.64
2023-11-17T13:45:05.027Z,10.41
2023-11-17T13:50:16.506Z,11.55
2023-11-17T13:55:21.248Z,14.47
2023-11-17T14:00:27.593Z,14.23
2023-11-17T14:05:31.046Z,12.93
2023-11-17T14:10:34.957Z,12.12
2023-11-17T14:15:47.815Z,11.54
2023-11-17T14:20:56.663Z,11.10
2023-11-17T14:25:59.900Z,10.82
2023-11-17T14:31:09.562Z,10.46
2023-11-17T14:36:12.926Z,10.00
2023-11-17T14:41:17.824Z,10.81
2023-11-17T14:46:25.076Z,13.39
2023-11-17T14:51:31.337Z,12.85
2023-11-17T14:56:35.538Z,11.45
2023-11-17T15:01:44.031Z,10.66
2023-11-17T15:06:55.685Z,10.05
2023-11-17T15:11:59.153Z,9.57
2023-11-17T15:17:02.302Z,9.21
2023-11-17T15:22:06.601Z,9.86
2023-11-17T15:27:09.715Z,12.70
2023-11-17T15:32:12.927Z,13.50
2023-11-17T15:37:16.133Z,11.88
2023-11-17T15:42:19.496Z,10.83
2023-11-17T15:47:22.987Z,10.15
2023-11-17T15:52:26.126Z,9.69
2023-11-17T15:57:29.184Z,9.35
2023-11-17T16:02:33.238Z,8.94
2023-11-17T16:07:36.488Z,8.59
2023-11-17T16:12:40.495Z,8.41
2023-11-17T16:17:43.586Z,9.58
2023-11-17T16:22:47.684Z,12.58
2023-11-17T16:27:52.589Z,12.75
2023-11-17T16:32:56.737Z,11.05
2023-11-17T16:38:00.462Z,9.97
2023-11-17T16:43:12.144Z,9.22
2023-11-17T16:48:15.899Z,8.65
2023-11-17T16:53:20.806Z,8.28
2023-11-17T16:58:24.928Z,8.00
2023-11-17T17:03:28.462Z,7.78
2023-11-17T17:08:32.481Z,7.63
2023-11-17T17:13:37.010Z,8.71
2023-11-17T17:18:41.241Z,11.84
2023-11-17T17:23:44.323Z,12.07
2023-11-17T17:28:47.445Z,10.55
2023-11-17T17:33:50.645Z,9.68
2023-11-17T17:38:53.769Z,9.00
2023-11-17T17:43:57.101Z,8.44
2023-11-17T17:49:01.253Z,8.07
2023-11-17T17:54:06.430Z,7.81
2023-11-17T17:59:09.502Z,7.58
2023-11-17T18:04:13.485Z,7.42
2023-11-17T18:09:16.998Z,8.63
2023-11-17T18:14:20.325Z,11.78
2023-11-17T18:19:23.547Z,12.00
2023-11-17T18:24:26.632Z,10.45
2023-11-17T18:29:29.870Z,9.57
2023-11-17T18:34:33.094Z,8.98
2023-11-17T18:39:38.322Z,8.54
2023-11-17T18:44:41.459Z,8.24
2023-11-17T18:49:46.170Z,7.98
2023-11-17T18:54:50.308Z,7.77
2023-11-17T18:59:53.503Z,7.62
2023-11-17T19:04:56.780Z,8.81
2023-11-17T19:10:00.285Z,11.93
2023-11-17T19:15:07.894Z,11.55
2023-11-17T19:20:16.663Z,10.16
2023-11-17T19:25:19.896Z,9.37
2023-11-17T19:30:23.072Z,8.83
2023-11-17T19:35:26.128Z,8.40
2023-11-17T19:40:29.328Z,8.09
2023-11-17T19:45:32.718Z,7.84
2023-11-17T19:50:36.058Z,7.63
2023-11-17T19:55:39.279Z,7.48
2023-11-17T20:00:44.195Z,8.57
2023-11-17T20:05:47.673Z,11.78
2023-11-17T20:10:51.186Z,12.50
2023-11-17T20:15:55.530Z,10.93
2023-11-17T20:21:00.886Z,9.90
2023-11-17T20:26:08.926Z,9.19
2023-11-17T20:31:14.566Z,8.54
2023-11-17T20:36:21.714Z,8.09
2023-11-17T20:41:25.555Z,7.78
2023-11-17T20:46:29.298Z,7.54
2023-11-17T20:51:33.019Z,7.35
2023-11-17T20:56:36.459Z,7.24
2023-11-17T21:01:47.970Z,8.28
2023-11-17T21:06:52.996Z,11.53
2023-11-17T21:11:56.317Z,11.69
2023-11-17T21:16:59.342Z,10.37
2023-11-17T21:22:02.819Z,9.61
2023-11-17T21:27:08.192Z,9.08
2023-11-17T21:32:12.589Z,8.68
2023-11-17T21:37:15.751Z,8.36
2023-11-17T21:42:19.337Z,8.10
2023-11-17T21:47:22.545Z,7.90
2023-11-17T21:52:25.793Z,7.76
2023-11-17T21:57:28.952Z,7.65
2023-11-17T22:02:32.065Z,7.53
2023-11-17T22:07:35.341Z,7.40
2023-11-17T22:12:42.781Z,7.29
2023-11-17T22:17:46.485Z,8.38
2023-11-17T22:22:51.990Z,11.82
2023-11-17T22:27:56.563Z,11.77
2023-11-17T22:32:59.916Z,10.37
2023-11-17T22:38:03.387Z,9.59
2023-11-17T22:43:06.714Z,9.03
2023-11-17T22:48:09.881Z,8.64
2023-11-17T22:53:13.216Z,8.31
2023-11-17T22:58:16.350Z,8.04
2023-11-17T23:03:19.598Z,7.86
2023-11-17T23:08:22.830Z,7.69
2023-11-17T23:13:26.551Z,7.58
2023-11-17T23:18:30.280Z,7.51
2023-11-17T23:23:33.471Z,7.46
2023-11-17T23:28:36.843Z,7.41
2023-11-17T23:33:40.074Z,8.81
2023-11-17T23:38:43.168Z,12.03
2023-11-17T23:43:47.905Z,12.58
2023-11-17T23:48:51.093Z,10.95
2023-11-17T23:53:56.409Z,9.94
2023-11-17T23:59:02.486Z,9.29
